XS39 weather

Public forecast

Using degrees Fahrenheit for public forecast. Weather courtesy of forecast.io.

Closest aviation weather report (METAR) to A&A Flying Service Airport

Closest report is Pearland Regional Airport, 1.5 nm (2.7 km) SE. Retrieved 2020/08/11 23:53 UTC (44 minutes ago):

KLVJ 112353Z AUTO 17007KT 10SM CLR 32/24 A2994 RMK AO2 SLP137 T03220239 10356 20322 58003

Closest aviation forecast (TAF) to A&A Flying Service Airport

Closest forecast is William P Hobby Airport, 6.6 nm (12.2 km) N. Retrieved 2020-08-12 00:22 UTC (15 minutes ago):

TAF KHOU 112320Z 1200/1224 16013KT P6SM SCT045 SCT250 FM120300 17006KT P6SM SCT250 FM120500 VRB04KT P6SM FEW020 FM121500 21008KT P6SM SCT040 FM122000 16011KT P6SM SCT250